Time;durP1;ratioP1;P1;durP2;ratioP2;P2;SDS_P1;SDS_P2;PMS_P1;PMS_P2;Temp;Humidity;BMP_temperature;BMP_pressure;BME280_temperature;BME280_humidity;BME280_pressure;Samples;Min_cycle;Max_cycle;Signal;HPM_P1;HPM_P2
2022/04/28 00:01:25;;;;;;;;;;;6.70;99.90;;;;;;5023820;28;19933;-69
2022/04/28 00:03:56;;;;;;;;;;;6.70;99.90;;;;;;5000666;28;19925;-69
2022/04/28 00:06:23;;;;;;;;;;;6.60;99.90;;;;;;5020446;28;19937;-69
2022/04/28 00:08:49;;;;;;;;;;;6.60;99.90;;;;;;5020761;28;19933;-69
2022/04/28 00:11:21;;;;;;;;;;;6.50;99.90;;;;;;5016575;28;19933;-69
2022/04/28 00:13:53;;;;;;;;;;;6.50;99.90;;;;;;5016883;28;20043;-70
2022/04/28 00:16:25;;;;;;;;;;;6.50;99.90;;;;;;5010166;28;19926;-69
2022/04/28 00:18:56;;;;;;;;;;;6.50;99.90;;;;;;5025700;28;20460;-69
2022/04/28 00:21:28;;;;;;;;;;;6.40;99.90;;;;;;5006614;28;20305;-69
2022/04/28 00:24:00;;;;;;;;;;;6.40;99.90;;;;;;5016668;28;19929;-69
2022/04/28 00:26:32;;;;;;;;;;;6.40;99.90;;;;;;5027081;28;20389;-69
2022/04/28 00:29:04;;;;;;;;;;;6.30;99.90;;;;;;5019456;28;19979;-70
2022/04/28 00:31:35;;;;;;;;;;;6.20;99.90;;;;;;5021690;28;19937;-71
2022/04/28 00:34:07;;;;;;;;;;;6.20;99.90;;;;;;5015662;28;19925;-70
2022/04/28 00:36:39;;;;;;;;;;;6.20;99.90;;;;;;5000340;28;19988;-71
2022/04/28 00:39:10;;;;;;;;;;;6.20;99.90;;;;;;5018048;28;19926;-71
2022/04/28 00:41:42;;;;;;;;;;;6.20;99.90;;;;;;5015704;28;20020;-71
2022/04/28 00:44:13;;;;;;;;;;;6.20;99.90;;;;;;5022611;28;20403;-71
2022/04/28 00:46:46;;;;;;;;;;;6.20;99.90;;;;;;4997984;28;20373;-71
2022/04/28 00:52:03;;;;;;;;;;;6.10;99.90;;;;;;5001738;28;20084;-71
2022/04/28 00:54:36;;;;;;;;;;;6.10;99.90;;;;;;5004679;28;20585;-70
2022/04/28 00:57:02;;;;;;;;;;;6.00;99.90;;;;;;5012210;28;19948;-71
2022/04/28 00:59:38;;;;;;;;;;;6.00;99.90;;;;;;5009890;28;19933;-70
2022/04/28 01:02:10;;;;;;;;;;;6.00;99.90;;;;;;5013469;28;20381;-71
2022/04/28 01:04:41;;;;;;;;;;;6.00;99.90;;;;;;5008614;28;19976;-71
2022/04/28 01:07:13;;;;;;;;;;;5.90;99.90;;;;;;5007038;28;19931;-70
2022/04/28 01:09:45;;;;;;;;;;;5.90;99.90;;;;;;4998057;28;20024;-70
2022/04/28 01:12:15;;;;;;;;;;;5.80;99.90;;;;;;5005026;28;19925;-71
2022/04/28 01:14:50;;;;;;;;;;;5.70;99.90;;;;;;5014421;28;19925;-70
2022/04/28 01:17:22;;;;;;;;;;;5.70;99.90;;;;;;5011720;28;19935;-71
2022/04/28 01:19:59;;;;;;;;;;;5.70;99.90;;;;;;4998554;28;20310;-71
2022/04/28 01:22:35;;;;;;;;;;;5.70;99.90;;;;;;5016864;28;19930;-71
2022/04/28 01:25:11;;;;;;;;;;;5.70;99.90;;;;;;5010881;28;19929;-71
2022/04/28 01:27:44;;;;;;;;;;;5.60;99.90;;;;;;4983230;28;19929;-71
2022/04/28 01:30:15;;;;;;;;;;;5.60;99.90;;;;;;5017438;28;19930;-71
2022/04/28 01:32:59;;;;;;;;;;;5.50;99.90;;;;;;4997652;28;20016;-71
2022/04/28 01:35:31;;;;;;;;;;;5.50;99.90;;;;;;5004067;28;19929;-72
2022/04/28 01:38:03;;;;;;;;;;;5.40;99.90;;;;;;5010720;28;20385;-70
2022/04/28 01:40:35;;;;;;;;;;;5.40;99.90;;;;;;5002718;28;19925;-71
2022/04/28 01:43:07;;;;;;;;;;;5.30;99.90;;;;;;5010766;28;19976;-71
2022/04/28 01:45:34;;;;;;;;;;;5.30;99.90;;;;;;5008497;28;19925;-71
2022/04/28 01:48:08;;;;;;;;;;;5.30;99.90;;;;;;5026752;28;19929;-70
2022/04/28 01:54:57;;;;;;;;;;;5.20;99.90;;;;;;5012764;28;19929;-70
2022/04/28 01:56:46;;;;;;;;;;;5.20;99.90;;;;;;5016739;28;19936;-71
2022/04/28 01:59:38;;;;;;;;;;;5.20;99.90;;;;;;5020714;28;19932;-69
2022/04/28 02:02:34;;;;;;;;;;;5.20;99.90;;;;;;5013022;28;20477;-70
2022/04/28 02:05:05;;;;;;;;;;;5.20;99.90;;;;;;5020660;28;19929;-70
2022/04/28 02:07:37;;;;;;;;;;;5.10;99.90;;;;;;5028815;28;19924;-71
2022/04/28 02:10:04;;;;;;;;;;;5.20;99.90;;;;;;5002792;28;19929;-70
2022/04/28 02:12:37;;;;;;;;;;;5.10;99.90;;;;;;4984615;28;19925;-71
2022/04/28 02:15:27;;;;;;;;;;;5.10;99.90;;;;;;5021297;28;19933;-71
2022/04/28 02:18:28;;;;;;;;;;;5.10;99.90;;;;;;4941762;28;19982;-71
2022/04/28 02:20:59;;;;;;;;;;;5.00;99.90;;;;;;5003103;28;20621;-71
2022/04/28 02:23:31;;;;;;;;;;;5.00;99.90;;;;;;5007702;28;19937;-71
2022/04/28 02:26:03;;;;;;;;;;;5.00;99.90;;;;;;5016524;28;20028;-71
2022/04/28 02:28:36;;;;;;;;;;;5.10;99.90;;;;;;5009461;28;20314;-71
2022/04/28 02:31:07;;;;;;;;;;;5.00;99.90;;;;;;4998718;28;20029;-70
2022/04/28 02:33:39;;;;;;;;;;;5.00;99.90;;;;;;5001585;28;19925;-68
2022/04/28 02:36:21;;;;;;;;;;;5.00;99.90;;;;;;5005544;28;20016;-70
2022/04/28 02:38:50;;;;;;;;;;;4.90;99.90;;;;;;5012878;28;20305;-71
2022/04/28 02:41:22;;;;;;;;;;;4.90;99.90;;;;;;5013755;28;19929;-70
2022/04/28 02:43:53;;;;;;;;;;;4.90;99.90;;;;;;5012987;28;20300;-71
2022/04/28 02:46:27;;;;;;;;;;;4.90;99.90;;;;;;5008734;28;20016;-71
2022/04/28 02:49:04;;;;;;;;;;;4.90;99.90;;;;;;4992456;28;19929;-71
2022/04/28 02:51:37;;;;;;;;;;;4.90;99.90;;;;;;4996947;28;20012;-70
2022/04/28 02:54:09;;;;;;;;;;;4.80;99.90;;;;;;5012844;28;20334;-70
2022/04/28 02:56:46;;;;;;;;;;;4.80;99.90;;;;;;5012847;28;19929;-71
2022/04/28 02:59:13;;;;;;;;;;;4.80;99.90;;;;;;5000947;28;19926;-70
2022/04/28 03:01:40;;;;;;;;;;;4.70;99.90;;;;;;5004459;28;20045;-71
2022/04/28 03:04:11;;;;;;;;;;;4.70;99.90;;;;;;5002853;28;19931;-71
2022/04/28 03:12:19;;;;;;;;;;;4.60;99.90;;;;;;5014678;28;19925;-71
2022/04/28 03:15:03;;;;;;;;;;;4.60;99.90;;;;;;4999882;28;19925;-71
2022/04/28 03:17:34;;;;;;;;;;;4.60;99.90;;;;;;5004196;28;20317;-70
2022/04/28 03:20:06;;;;;;;;;;;4.60;99.90;;;;;;5013169;28;19976;-71
2022/04/28 03:22:38;;;;;;;;;;;4.60;99.90;;;;;;5006114;28;19925;-71
2022/04/28 03:25:10;;;;;;;;;;;4.50;99.90;;;;;;5010235;28;20015;-71
2022/04/28 03:27:42;;;;;;;;;;;4.50;99.90;;;;;;5012484;28;20293;-71
2022/04/28 03:30:14;;;;;;;;;;;4.50;99.90;;;;;;5008708;28;19936;-70
2022/04/28 03:33:01;;;;;;;;;;;4.50;99.90;;;;;;5013082;28;19933;-71
2022/04/28 03:35:33;;;;;;;;;;;4.50;99.90;;;;;;5024347;28;20028;-71
2022/04/28 03:38:11;;;;;;;;;;;4.50;99.90;;;;;;4996605;28;19925;-71
2022/04/28 03:40:43;;;;;;;;;;;4.40;99.90;;;;;;5006242;28;19925;-71
2022/04/28 03:43:15;;;;;;;;;;;4.40;99.90;;;;;;5030470;28;20023;-71
2022/04/28 03:45:47;;;;;;;;;;;4.30;99.90;;;;;;5011769;28;19925;-71
2022/04/28 03:48:20;;;;;;;;;;;4.30;99.90;;;;;;5003880;28;19926;-70
2022/04/28 03:50:47;;;;;;;;;;;4.30;99.90;;;;;;5000367;28;20297;-70
2022/04/28 03:53:19;;;;;;;;;;;4.20;99.90;;;;;;4990537;28;19929;-71
2022/04/28 03:55:50;;;;;;;;;;;4.20;99.90;;;;;;5015853;28;19929;-70
2022/04/28 03:58:22;;;;;;;;;;;4.20;99.90;;;;;;5014748;28;19925;-70
2022/04/28 04:00:53;;;;;;;;;;;4.20;99.90;;;;;;5000080;28;19929;-71
2022/04/28 04:03:39;;;;;;;;;;;4.20;99.90;;;;;;5015768;28;20321;-72
2022/04/28 04:06:10;;;;;;;;;;;4.10;99.90;;;;;;5015051;28;19936;-70
2022/04/28 04:08:43;;;;;;;;;;;4.10;99.90;;;;;;5018487;28;20396;-71
2022/04/28 04:11:12;;;;;;;;;;;4.10;99.90;;;;;;5028745;28;19968;-71
2022/04/28 04:13:43;;;;;;;;;;;4.10;99.90;;;;;;5028427;28;20392;-72
2022/04/28 04:16:11;;;;;;;;;;;4.00;99.90;;;;;;4992660;28;19960;-73
2022/04/28 04:18:53;;;;;;;;;;;4.00;99.90;;;;;;4998249;28;19930;-70
2022/04/28 04:21:28;;;;;;;;;;;4.00;99.90;;;;;;5008707;28;19929;-71
2022/04/28 04:24:00;;;;;;;;;;;4.00;99.90;;;;;;5012631;28;19929;-70
2022/04/28 04:26:34;;;;;;;;;;;4.00;99.90;;;;;;5007235;28;19925;-71
2022/04/28 04:29:09;;;;;;;;;;;4.10;99.90;;;;;;5015236;28;19979;-71
2022/04/28 04:34:56;;;;;;;;;;;4.00;99.90;;;;;;5014906;28;19949;-70
2022/04/28 04:37:28;;;;;;;;;;;4.00;99.90;;;;;;5002637;28;19925;-71
2022/04/28 04:40:01;;;;;;;;;;;4.10;99.90;;;;;;4993943;28;19925;-70
2022/04/28 04:42:33;;;;;;;;;;;4.10;99.90;;;;;;5017474;28;19926;-70
2022/04/28 04:45:07;;;;;;;;;;;4.10;99.90;;;;;;5016306;28;20301;-71
2022/04/28 04:48:11;;;;;;;;;;;4.10;99.90;;;;;;5016188;28;20331;-71
2022/04/28 04:50:42;;;;;;;;;;;4.10;99.90;;;;;;5023119;28;19925;-71
2022/04/28 04:53:32;;;;;;;;;;;4.10;99.90;;;;;;5014877;28;19929;-71
2022/04/28 04:56:04;;;;;;;;;;;4.10;99.90;;;;;;5014350;28;19971;-71
2022/04/28 04:58:36;;;;;;;;;;;4.10;99.90;;;;;;5017781;28;19929;-70
2022/04/28 05:01:09;;;;;;;;;;;4.10;99.90;;;;;;5024990;28;20392;-72
2022/04/28 05:03:59;;;;;;;;;;;4.10;99.90;;;;;;5023391;28;19932;-70
2022/04/28 05:06:53;;;;;;;;;;;4.20;99.90;;;;;;5011634;28;19931;-71
2022/04/28 05:09:30;;;;;;;;;;;4.20;99.90;;;;;;5025483;28;19939;-71
2022/04/28 05:12:02;;;;;;;;;;;4.20;99.90;;;;;;5008932;28;20496;-71
2022/04/28 05:14:39;;;;;;;;;;;4.20;99.90;;;;;;5025617;28;19933;-71
2022/04/28 05:17:05;;;;;;;;;;;4.20;99.90;;;;;;5007789;28;19925;-71
2022/04/28 05:19:49;;;;;;;;;;;4.20;99.90;;;;;;5012879;28;19929;-71
2022/04/28 05:22:59;;;;;;;;;;;4.20;99.90;;;;;;5025898;28;20455;-71
2022/04/28 05:25:49;;;;;;;;;;;4.30;99.90;;;;;;5029480;28;20439;-71
2022/04/28 05:28:35;;;;;;;;;;;4.40;99.90;;;;;;5025633;28;19917;-71
2022/04/28 05:31:32;;;;;;;;;;;4.40;99.90;;;;;;5013353;28;19932;-71
2022/04/28 05:34:17;;;;;;;;;;;4.40;99.90;;;;;;4996004;28;20317;-71
2022/04/28 05:36:56;;;;;;;;;;;4.50;99.90;;;;;;5023301;28;19931;-70
2022/04/28 05:39:28;;;;;;;;;;;4.50;99.90;;;;;;5026533;28;19960;-71
2022/04/28 05:41:55;;;;;;;;;;;4.40;99.90;;;;;;5013763;28;19933;-71
2022/04/28 05:47:08;;;;;;;;;;;4.50;99.90;;;;;;5009220;28;19929;-71
2022/04/28 05:49:40;;;;;;;;;;;4.70;99.90;;;;;;5026796;28;20307;-70
2022/04/28 05:52:12;;;;;;;;;;;4.70;99.90;;;;;;5003118;28;19929;-71
2022/04/28 05:54:46;;;;;;;;;;;4.70;99.90;;;;;;4999104;28;19933;-70
2022/04/28 05:57:12;;;;;;;;;;;4.80;99.90;;;;;;5007532;28;19940;-70
2022/04/28 05:59:40;;;;;;;;;;;4.90;99.90;;;;;;5012188;28;19925;-70
2022/04/28 06:02:30;;;;;;;;;;;4.90;99.90;;;;;;5010445;28;19931;-71
2022/04/28 06:05:04;;;;;;;;;;;5.00;99.90;;;;;;5022987;28;19925;-71
2022/04/28 06:07:30;;;;;;;;;;;5.00;99.90;;;;;;5019162;28;19925;-70
2022/04/28 06:09:57;;;;;;;;;;;5.10;99.90;;;;;;5020453;28;19932;-71
2022/04/28 06:12:29;;;;;;;;;;;5.10;99.90;;;;;;5019736;28;20031;-71
2022/04/28 06:15:18;;;;;;;;;;;5.20;99.90;;;;;;5009632;28;20011;-70
2022/04/28 06:18:23;;;;;;;;;;;5.30;99.90;;;;;;4986882;28;19944;-71
2022/04/28 06:20:50;;;;;;;;;;;5.40;99.90;;;;;;5004405;28;19929;-70
2022/04/28 06:23:29;;;;;;;;;;;5.50;99.90;;;;;;4997294;28;19975;-71
2022/04/28 06:26:03;;;;;;;;;;;5.60;99.90;;;;;;5003605;28;22296;-70
2022/04/28 06:28:35;;;;;;;;;;;5.60;99.90;;;;;;5012160;28;19965;-70
2022/04/28 06:31:06;;;;;;;;;;;5.70;99.90;;;;;;5010436;28;20028;-71
2022/04/28 06:34:01;;;;;;;;;;;5.70;99.90;;;;;;4993353;28;19952;-70
2022/04/28 06:36:38;;;;;;;;;;;5.80;99.90;;;;;;5012751;28;19925;-71
2022/04/28 06:39:10;;;;;;;;;;;6.00;99.90;;;;;;4992105;28;19933;-70
2022/04/28 06:41:37;;;;;;;;;;;6.00;99.90;;;;;;5013090;28;20404;-71
2022/04/28 06:44:20;;;;;;;;;;;6.10;99.90;;;;;;5012007;28;20039;-71
2022/04/28 06:46:52;;;;;;;;;;;6.30;99.90;;;;;;5025925;28;19931;-69
2022/04/28 06:49:24;;;;;;;;;;;6.40;99.90;;;;;;5021585;28;19925;-71
2022/04/28 06:51:55;;;;;;;;;;;6.50;99.90;;;;;;5020342;28;19952;-71
2022/04/28 06:54:42;;;;;;;;;;;6.90;99.90;;;;;;5020944;28;19925;-71
2022/04/28 06:57:11;;;;;;;;;;;7.10;99.90;;;;;;5009787;28;19960;-71
2022/04/28 06:59:43;;;;;;;;;;;7.30;99.90;;;;;;4995887;28;20028;-70
2022/04/28 07:02:20;;;;;;;;;;;7.40;99.90;;;;;;5009307;28;20287;-71
2022/04/28 07:04:52;;;;;;;;;;;7.50;99.90;;;;;;5014116;28;19929;-71
2022/04/28 07:07:25;;;;;;;;;;;7.60;99.90;;;;;;5011601;28;19935;-71
2022/04/28 07:09:59;;;;;;;;;;;7.70;99.90;;;;;;5010832;28;19929;-71
2022/04/28 07:12:36;;;;;;;;;;;7.80;99.90;;;;;;5017446;28;19925;-71
2022/04/28 07:15:45;;;;;;;;;;;7.90;99.90;;;;;;4991413;28;19932;-71
2022/04/28 07:18:31;;;;;;;;;;;8.10;99.90;;;;;;5014404;28;19933;-70
2022/04/28 07:21:03;;;;;;;;;;;8.30;99.90;;;;;;5008751;28;20020;-69
2022/04/28 07:23:30;;;;;;;;;;;8.30;99.90;;;;;;4999409;28;19929;-69
2022/04/28 07:25:57;;;;;;;;;;;8.50;99.90;;;;;;5010796;28;19952;-71
2022/04/28 07:28:24;;;;;;;;;;;8.60;99.90;;;;;;5010348;28;19956;-71
2022/04/28 07:30:58;;;;;;;;;;;8.80;99.90;;;;;;5004964;28;19973;-71
2022/04/28 07:34:08;;;;;;;;;;;9.00;99.90;;;;;;5018664;28;19936;-69
2022/04/28 07:36:39;;;;;;;;;;;9.30;99.90;;;;;;5017895;28;19940;-71
2022/04/28 07:39:29;;;;;;;;;;;9.50;99.90;;;;;;5004808;28;19936;-71
2022/04/28 07:42:17;;;;;;;;;;;9.70;99.90;;;;;;4995139;28;19932;-69
2022/04/28 07:44:47;;;;;;;;;;;9.90;99.90;;;;;;5015423;28;20023;-70
2022/04/28 07:47:18;;;;;;;;;;;10.10;99.90;;;;;;4997623;28;19932;-71
2022/04/28 07:50:04;;;;;;;;;;;10.20;99.90;;;;;;4997079;28;19925;-71
2022/04/28 07:52:30;;;;;;;;;;;10.30;99.90;;;;;;5012465;28;19929;-72
2022/04/28 07:55:03;;;;;;;;;;;10.40;99.90;;;;;;5009630;28;20020;-71
2022/04/28 07:57:35;;;;;;;;;;;10.60;99.90;;;;;;5004652;28;19933;-71
2022/04/28 08:00:08;;;;;;;;;;;10.70;99.90;;;;;;4995317;28;19960;-69
2022/04/28 08:02:46;;;;;;;;;;;10.80;99.90;;;;;;5012026;28;20393;-71
2022/04/28 08:05:21;;;;;;;;;;;11.00;99.90;;;;;;5015884;28;19937;-71
2022/04/28 08:07:48;;;;;;;;;;;11.10;99.90;;;;;;5016448;28;19952;-71
2022/04/28 08:10:20;;;;;;;;;;;11.20;99.90;;;;;;5008632;28;20368;-71
2022/04/28 08:12:46;;;;;;;;;;;11.30;99.90;;;;;;5008296;28;19940;-70
2022/04/28 08:15:36;;;;;;;;;;;11.40;99.90;;;;;;5027692;28;20345;-70
2022/04/28 08:18:08;;;;;;;;;;;11.60;99.90;;;;;;5014155;28;19937;-71
2022/04/28 08:20:40;;;;;;;;;;;11.70;99.90;;;;;;5010279;28;20428;-70
2022/04/28 08:23:12;;;;;;;;;;;11.80;99.90;;;;;;4993708;28;19940;-71
2022/04/28 08:25:44;;;;;;;;;;;11.90;99.90;;;;;;5012352;28;20012;-70
2022/04/28 08:28:15;;;;;;;;;;;12.00;99.90;;;;;;5011990;28;20408;-70
2022/04/28 08:30:47;;;;;;;;;;;12.20;99.90;;;;;;5013000;28;19941;-71
2022/04/28 08:33:14;;;;;;;;;;;12.30;99.90;;;;;;4996140;28;19929;-71
2022/04/28 08:35:46;;;;;;;;;;;12.40;99.90;;;;;;5017423;28;20013;-72
2022/04/28 08:38:18;;;;;;;;;;;12.50;99.90;;;;;;5007722;28;19926;-68
2022/04/28 08:40:46;;;;;;;;;;;12.70;99.90;;;;;;5008107;28;20393;-70
2022/04/28 08:43:38;;;;;;;;;;;12.80;99.90;;;;;;5001410;28;20091;-71
2022/04/28 08:49:00;;;;;;;;;;;13.00;99.90;;;;;;5011756;28;19937;-71
2022/04/28 08:51:37;;;;;;;;;;;13.20;99.90;;;;;;5000808;28;19979;-71
2022/04/28 08:54:11;;;;;;;;;;;13.30;99.90;;;;;;5009451;28;19925;-70
2022/04/28 08:56:43;;;;;;;;;;;13.40;99.90;;;;;;5004972;28;20011;-71
2022/04/28 08:59:15;;;;;;;;;;;13.60;99.90;;;;;;5006848;28;19961;-71
2022/04/28 09:01:47;;;;;;;;;;;13.70;99.90;;;;;;4998367;28;19925;-71
2022/04/28 09:04:37;;;;;;;;;;;13.80;99.90;;;;;;5025465;28;19936;-71
2022/04/28 09:07:48;;;;;;;;;;;14.00;99.90;;;;;;4957123;28;20050;-70
2022/04/28 09:10:45;;;;;;;;;;;14.00;99.90;;;;;;4964109;28;19976;-71
2022/04/28 09:16:26;;;;;;;;;;;14.10;99.90;;;;;;5011176;28;19941;-71
2022/04/28 09:18:58;;;;;;;;;;;14.20;99.90;;;;;;5006409;28;20275;-71
2022/04/28 09:21:32;;;;;;;;;;;14.20;99.90;;;;;;5003684;28;20024;-70
2022/04/28 09:24:04;;;;;;;;;;;14.30;99.90;;;;;;5009319;28;19931;-71
2022/04/28 09:26:37;;;;;;;;;;;14.40;99.90;;;;;;5025092;28;20342;-71
2022/04/28 09:29:12;;;;;;;;;;;14.50;99.90;;;;;;5003162;28;20056;-70
2022/04/28 09:31:44;;;;;;;;;;;14.60;99.90;;;;;;5008535;28;20061;-70
2022/04/28 09:34:47;;;;;;;;;;;14.80;99.90;;;;;;5026153;28;19979;-72
2022/04/28 09:37:51;;;;;;;;;;;14.90;99.90;;;;;;5011676;28;19932;-71
2022/04/28 09:43:14;;;;;;;;;;;15.10;99.70;;;;;;5013582;28;20410;-71
2022/04/28 09:45:50;;;;;;;;;;;15.10;98.50;;;;;;5015603;28;19925;-71
2022/04/28 09:48:24;;;;;;;;;;;15.00;99.80;;;;;;5013650;28;20274;-71
2022/04/28 09:51:03;;;;;;;;;;;14.90;98.10;;;;;;4990137;28;20356;-70
2022/04/28 09:53:41;;;;;;;;;;;14.80;99.00;;;;;;5021994;28;19926;-71
2022/04/28 09:56:34;;;;;;;;;;;14.60;97.20;;;;;;5012637;28;19933;-71
2022/04/28 09:59:20;;;;;;;;;;;14.50;97.10;;;;;;5021547;28;19936;-70
2022/04/28 10:01:51;;;;;;;;;;;14.60;97.50;;;;;;5008775;28;20404;-71
2022/04/28 10:04:24;;;;;;;;;;;14.60;98.60;;;;;;5014800;28;19933;-71
2022/04/28 10:07:01;;;;;;;;;;;14.60;95.80;;;;;;5015273;28;19929;-70
2022/04/28 10:09:36;;;;;;;;;;;14.70;96.50;;;;;;5006649;28;19929;-71
2022/04/28 10:12:14;;;;;;;;;;;14.70;96.00;;;;;;5012222;28;20045;-70
2022/04/28 10:15:03;;;;;;;;;;;14.60;97.20;;;;;;5016804;28;19965;-71
2022/04/28 10:17:46;;;;;;;;;;;14.70;97.70;;;;;;5002965;28;19940;-70
2022/04/28 10:20:20;;;;;;;;;;;14.90;99.40;;;;;;5011960;28;20413;-71
2022/04/28 10:22:54;;;;;;;;;;;15.00;96.90;;;;;;5018309;28;21021;-71
2022/04/28 10:34:53;;;;;;;;;;;15.70;92.80;;;;;;5024179;28;19926;-71
2022/04/28 10:37:31;;;;;;;;;;;15.90;94.40;;;;;;5017467;28;19925;-71
2022/04/28 10:40:03;;;;;;;;;;;16.10;94.30;;;;;;5007029;28;20015;-70
2022/04/28 10:42:35;;;;;;;;;;;16.20;91.50;;;;;;4998525;28;19929;-69
2022/04/28 10:45:18;;;;;;;;;;;16.30;91.80;;;;;;5021636;28;19925;-70
2022/04/28 10:48:09;;;;;;;;;;;16.50;91.90;;;;;;5024487;28;19933;-70
2022/04/28 10:50:41;;;;;;;;;;;16.50;90.30;;;;;;5021859;28;19930;-70
2022/04/28 10:53:13;;;;;;;;;;;16.70;92.00;;;;;;5007789;28;19936;-69
2022/04/28 10:55:48;;;;;;;;;;;16.80;91.50;;;;;;5021480;28;19925;-70
2022/04/28 10:58:18;;;;;;;;;;;16.90;91.00;;;;;;5020809;28;19940;-71
2022/04/28 11:00:53;;;;;;;;;;;17.00;90.00;;;;;;5021615;28;19929;-72
2022/04/28 11:03:40;;;;;;;;;;;17.10;89.10;;;;;;5009399;28;19952;-70
2022/04/28 11:06:17;;;;;;;;;;;17.10;88.20;;;;;;5012393;28;19929;-70
2022/04/28 11:08:50;;;;;;;;;;;17.10;88.00;;;;;;5019376;28;19932;-70
2022/04/28 11:11:28;;;;;;;;;;;17.20;86.80;;;;;;5019411;28;19933;-70
2022/04/28 11:14:00;;;;;;;;;;;17.40;83.20;;;;;;4993805;28;19929;-71
2022/04/28 11:16:32;;;;;;;;;;;17.40;81.50;;;;;;5014308;28;19928;-69
2022/04/28 11:19:04;;;;;;;;;;;17.60;81.80;;;;;;5025511;28;20349;-69
2022/04/28 11:21:39;;;;;;;;;;;17.80;84.90;;;;;;5028284;28;19936;-69
2022/04/28 11:24:10;;;;;;;;;;;17.90;78.50;;;;;;5010868;28;19964;-69
2022/04/28 11:26:52;;;;;;;;;;;18.00;82.20;;;;;;5010337;28;19929;-70
2022/04/28 11:29:46;;;;;;;;;;;17.90;83.30;;;;;;5007704;28;20283;-70
2022/04/28 11:32:18;;;;;;;;;;;17.70;79.00;;;;;;5022060;28;19932;-69
2022/04/28 11:34:50;;;;;;;;;;;17.60;83.00;;;;;;5024851;28;19932;-70
2022/04/28 11:37:24;;;;;;;;;;;17.70;82.90;;;;;;5014562;28;19936;-69
2022/04/28 11:39:57;;;;;;;;;;;17.80;78.00;;;;;;5028804;28;19925;-70
2022/04/28 11:42:28;;;;;;;;;;;17.80;78.30;;;;;;5014787;28;19943;-70
2022/04/28 11:45:00;;;;;;;;;;;17.90;76.90;;;;;;5024169;28;19926;-69
2022/04/28 11:47:36;;;;;;;;;;;18.00;76.80;;;;;;5017336;28;19932;-70
2022/04/28 11:50:16;;;;;;;;;;;18.00;78.70;;;;;;5026388;28;19929;-69
2022/04/28 11:53:04;;;;;;;;;;;18.10;80.00;;;;;;5013678;28;20301;-68
2022/04/28 11:55:40;;;;;;;;;;;18.20;75.90;;;;;;5020197;28;19932;-70
2022/04/28 11:58:15;;;;;;;;;;;18.30;73.10;;;;;;4998774;28;19935;-72
2022/04/28 12:00:47;;;;;;;;;;;18.30;73.50;;;;;;5023325;28;20552;-70
2022/04/28 12:03:23;;;;;;;;;;;18.30;75.40;;;;;;5018495;28;19930;-70
2022/04/28 12:05:56;;;;;;;;;;;18.30;72.90;;;;;;5006134;28;19936;-72
2022/04/28 12:08:27;;;;;;;;;;;18.30;72.10;;;;;;5019450;28;20024;-70
2022/04/28 12:19:30;;;;;;;;;;;18.20;70.50;;;;;;5029886;28;19929;-70
2022/04/28 12:22:02;;;;;;;;;;;18.10;71.80;;;;;;5024005;28;19929;-71
2022/04/28 12:24:34;;;;;;;;;;;18.10;71.00;;;;;;5022890;28;19933;-70
2022/04/28 12:27:07;;;;;;;;;;;18.20;69.80;;;;;;5011158;28;19929;-70
2022/04/28 12:29:53;;;;;;;;;;;18.30;71.00;;;;;;5025451;28;19929;-70
2022/04/28 12:32:25;;;;;;;;;;;18.40;67.90;;;;;;5028266;28;19939;-73
2022/04/28 12:35:02;;;;;;;;;;;18.50;68.90;;;;;;5011100;28;20017;-72
2022/04/28 12:37:36;;;;;;;;;;;18.50;69.90;;;;;;5024254;28;20445;-70
2022/04/28 12:40:10;;;;;;;;;;;18.50;68.20;;;;;;5010855;28;19929;-70
2022/04/28 12:42:46;;;;;;;;;;;18.60;71.50;;;;;;5028006;28;19925;-70
2022/04/28 12:45:37;;;;;;;;;;;18.70;67.70;;;;;;5021301;28;19932;-72
2022/04/28 12:48:22;;;;;;;;;;;18.70;63.30;;;;;;5020378;28;19926;-73
2022/04/28 12:51:13;;;;;;;;;;;18.70;69.20;;;;;;5020095;28;19936;-71
2022/04/28 12:53:46;;;;;;;;;;;18.80;69.40;;;;;;5027771;28;19925;-71
2022/04/28 12:56:28;;;;;;;;;;;18.90;67.80;;;;;;5011985;28;19929;-70
2022/04/28 12:59:02;;;;;;;;;;;19.00;67.40;;;;;;5023190;28;19929;-72
2022/04/28 13:01:34;;;;;;;;;;;19.30;68.00;;;;;;5026613;28;19935;-73
2022/04/28 13:04:22;;;;;;;;;;;19.30;66.70;;;;;;5026425;28;19925;-74
2022/04/28 13:06:54;;;;;;;;;;;19.30;66.60;;;;;;5027569;28;19943;-71
2022/04/28 13:09:26;;;;;;;;;;;19.40;66.90;;;;;;5028216;28;19929;-70
2022/04/28 13:11:58;;;;;;;;;;;19.50;65.10;;;;;;5023897;28;19925;-71
2022/04/28 13:14:30;;;;;;;;;;;19.50;66.80;;;;;;5028087;28;19929;-70
2022/04/28 13:17:01;;;;;;;;;;;19.50;66.40;;;;;;5026975;28;19926;-72
2022/04/28 13:19:33;;;;;;;;;;;19.70;67.90;;;;;;5024885;28;20408;-71
2022/04/28 13:21:59;;;;;;;;;;;19.60;64.00;;;;;;5022620;28;20004;-71
2022/04/28 13:24:31;;;;;;;;;;;19.70;64.50;;;;;;5026482;28;19936;-71
2022/04/28 13:27:03;;;;;;;;;;;19.70;66.00;;;;;;5013314;28;20019;-74
2022/04/28 13:29:29;;;;;;;;;;;19.80;67.60;;;;;;5022713;28;19926;-71
2022/04/28 13:32:03;;;;;;;;;;;19.80;64.50;;;;;;5023013;28;19933;-70
2022/04/28 13:34:35;;;;;;;;;;;19.70;66.60;;;;;;5025276;28;20493;-71
2022/04/28 13:37:02;;;;;;;;;;;19.70;65.00;;;;;;5024753;28;19929;-71
2022/04/28 13:39:34;;;;;;;;;;;19.70;63.40;;;;;;4989300;28;19997;-71
2022/04/28 13:42:06;;;;;;;;;;;19.70;62.60;;;;;;5023793;28;19931;-72
2022/04/28 13:44:33;;;;;;;;;;;19.80;65.10;;;;;;5010944;28;19932;-70
2022/04/28 13:47:04;;;;;;;;;;;19.90;64.60;;;;;;5028464;28;19932;-71
2022/04/28 13:49:31;;;;;;;;;;;20.00;67.20;;;;;;5025847;28;19929;-71
2022/04/28 13:51:58;;;;;;;;;;;20.20;62.90;;;;;;5013735;28;20016;-70
2022/04/28 13:54:29;;;;;;;;;;;20.30;63.00;;;;;;5006193;28;19964;-72
2022/04/28 13:57:01;;;;;;;;;;;20.30;61.10;;;;;;5023595;28;19925;-71
2022/04/28 13:59:34;;;;;;;;;;;20.40;61.40;;;;;;5024771;28;20537;-70
2022/04/28 14:02:05;;;;;;;;;;;20.40;60.00;;;;;;5025101;28;19936;-71
2022/04/28 14:04:37;;;;;;;;;;;20.40;60.70;;;;;;5020297;28;19933;-70
2022/04/28 14:07:09;;;;;;;;;;;20.30;61.30;;;;;;5008633;28;21412;-72
2022/04/28 14:09:41;;;;;;;;;;;20.30;61.90;;;;;;5021797;28;19936;-71
2022/04/28 14:12:13;;;;;;;;;;;20.20;61.00;;;;;;5008418;28;20298;-70
2022/04/28 14:14:45;;;;;;;;;;;20.20;60.30;;;;;;5017350;28;19926;-71
2022/04/28 14:17:16;;;;;;;;;;;20.40;59.50;;;;;;5022199;28;19936;-72
2022/04/28 14:19:48;;;;;;;;;;;20.50;60.00;;;;;;4989828;28;19975;-72
2022/04/28 14:22:17;;;;;;;;;;;20.50;57.30;;;;;;5018811;28;20015;-70
2022/04/28 14:24:49;;;;;;;;;;;20.60;58.60;;;;;;5009206;28;19933;-72
2022/04/28 14:27:21;;;;;;;;;;;20.60;57.60;;;;;;5023671;28;20366;-70
2022/04/28 14:29:52;;;;;;;;;;;20.80;59.30;;;;;;5025593;28;19932;-70
2022/04/28 14:32:24;;;;;;;;;;;20.90;59.30;;;;;;5011012;28;19925;-71
2022/04/28 14:34:56;;;;;;;;;;;21.00;57.50;;;;;;5020844;28;19925;-71
2022/04/28 14:37:28;;;;;;;;;;;20.80;58.50;;;;;;5019019;28;19936;-70
2022/04/28 14:40:00;;;;;;;;;;;21.00;58.80;;;;;;5022360;28;19925;-70
2022/04/28 14:42:32;;;;;;;;;;;21.10;57.20;;;;;;5026890;28;20424;-70
2022/04/28 14:45:04;;;;;;;;;;;21.10;59.00;;;;;;5021397;28;19932;-71
2022/04/28 14:47:30;;;;;;;;;;;21.30;58.80;;;;;;5022266;28;19936;-70
2022/04/28 14:52:54;;;;;;;;;;;21.30;56.80;;;;;;5026773;28;19926;-71
2022/04/28 14:55:26;;;;;;;;;;;21.50;56.80;;;;;;5024430;28;19933;-71
2022/04/28 14:58:06;;;;;;;;;;;21.80;55.90;;;;;;5015415;28;20015;-70
2022/04/28 15:00:38;;;;;;;;;;;21.90;56.40;;;;;;5030827;28;20411;-72
2022/04/28 15:03:11;;;;;;;;;;;22.00;56.10;;;;;;4997840;28;19959;-70
2022/04/28 15:05:43;;;;;;;;;;;22.30;55.00;;;;;;5029116;28;19926;-70
2022/04/28 15:08:15;;;;;;;;;;;22.50;55.20;;;;;;5029977;28;19952;-71
2022/04/28 15:10:47;;;;;;;;;;;22.60;54.90;;;;;;5021448;28;19925;-71
2022/04/28 15:13:19;;;;;;;;;;;22.80;53.40;;;;;;5008516;28;19933;-72
2022/04/28 15:15:50;;;;;;;;;;;22.90;51.90;;;;;;5012623;28;19933;-70
2022/04/28 15:18:22;;;;;;;;;;;23.10;52.60;;;;;;5026077;28;19948;-71
2022/04/28 15:20:54;;;;;;;;;;;23.20;51.70;;;;;;5011887;28;20286;-71
2022/04/28 15:23:25;;;;;;;;;;;23.00;52.40;;;;;;5012246;28;19971;-70
2022/04/28 15:25:57;;;;;;;;;;;22.90;51.40;;;;;;5028520;28;19929;-70
2022/04/28 15:28:24;;;;;;;;;;;22.90;52.90;;;;;;4992314;28;19929;-70
2022/04/28 15:30:56;;;;;;;;;;;23.00;51.20;;;;;;5026015;28;20661;-71
2022/04/28 15:33:28;;;;;;;;;;;23.20;50.80;;;;;;5021966;28;20023;-72
2022/04/28 15:35:59;;;;;;;;;;;23.30;49.10;;;;;;5027785;28;20621;-71
2022/04/28 15:38:31;;;;;;;;;;;23.30;50.00;;;;;;4998571;28;19925;-71
2022/04/28 15:41:04;;;;;;;;;;;23.20;49.70;;;;;;5017899;28;19929;-70
2022/04/28 15:43:35;;;;;;;;;;;23.40;51.40;;;;;;5029523;28;19949;-72
2022/04/28 15:46:07;;;;;;;;;;;23.50;51.80;;;;;;5028123;28;19929;-71
2022/04/28 15:48:34;;;;;;;;;;;23.70;49.60;;;;;;5029840;28;19932;-71
2022/04/28 15:51:05;;;;;;;;;;;23.90;49.80;;;;;;5013122;28;20312;-71
2022/04/28 15:53:37;;;;;;;;;;;23.90;48.50;;;;;;5027852;28;20004;-70
2022/04/28 15:56:09;;;;;;;;;;;23.90;49.70;;;;;;5029621;28;19944;-70